createdAt,value
2023-05-14T00:01:42.250Z,10.18
2023-05-14T00:04:09.278Z,7.70
2023-05-14T00:06:36.440Z,9.30
2023-05-14T00:09:04.434Z,8.57
2023-05-14T00:11:31.432Z,8.85
2023-05-14T00:18:17.899Z,9.43
2023-05-14T00:20:44.937Z,10.80
2023-05-14T00:23:11.956Z,9.40
2023-05-14T00:25:39.006Z,11.85
2023-05-14T00:28:06.179Z,10.95
2023-05-14T00:30:33.360Z,12.25
2023-05-14T00:33:00.433Z,11.23
2023-05-14T00:35:27.559Z,10.93
2023-05-14T00:37:55.153Z,11.75
2023-05-14T00:40:27.111Z,15.20
2023-05-14T00:42:55.043Z,10.98
2023-05-14T00:45:22.518Z,9.95
2023-05-14T00:47:49.914Z,12.77
2023-05-14T00:50:18.039Z,10.70
2023-05-14T00:52:45.224Z,9.88
2023-05-14T00:55:16.543Z,11.30
2023-05-14T00:57:44.561Z,10.45
2023-05-14T01:00:11.973Z,13.50
2023-05-14T01:02:39.153Z,13.75
2023-05-14T01:05:07.298Z,10.50
2023-05-14T01:07:56.957Z,10.75
2023-05-14T01:10:49.369Z,11.75
2023-05-14T01:13:43.511Z,12.38
2023-05-14T01:16:14.565Z,11.23
2023-05-14T01:18:43.197Z,14.02
2023-05-14T01:21:34.981Z,12.65
2023-05-14T01:24:02.049Z,14.63
2023-05-14T01:26:31.550Z,14.35
2023-05-14T01:29:13.379Z,14.35
2023-05-14T01:31:43.836Z,13.25
2023-05-14T01:34:12.459Z,13.07
2023-05-14T01:36:41.480Z,12.05
2023-05-14T01:39:10.680Z,11.93
2023-05-14T01:41:39.541Z,10.52
2023-05-14T01:44:06.792Z,13.67
2023-05-14T01:46:34.127Z,11.65
2023-05-14T01:49:01.419Z,12.73
2023-05-14T01:51:28.594Z,13.30
2023-05-14T01:53:55.677Z,13.02
2023-05-14T01:56:24.044Z,16.08
2023-05-14T01:58:51.227Z,14.23
2023-05-14T02:01:18.368Z,14.00
2023-05-14T02:03:45.944Z,15.10
2023-05-14T02:06:12.980Z,15.32
2023-05-14T02:08:40.162Z,17.33
2023-05-14T02:11:07.310Z,15.32
2023-05-14T02:13:34.398Z,14.10
2023-05-14T02:16:01.551Z,17.27
2023-05-14T02:18:28.858Z,14.85
2023-05-14T02:20:56.204Z,14.35
2023-05-14T02:23:34.193Z,15.38
2023-05-14T02:26:05.279Z,17.42
2023-05-14T02:28:32.378Z,16.55
2023-05-14T02:31:00.816Z,14.43
2023-05-14T02:33:28.450Z,15.85
2023-05-14T02:35:55.519Z,14.40
2023-05-14T02:38:23.502Z,17.92
2023-05-14T02:40:50.490Z,17.42
2023-05-14T02:43:17.627Z,18.60
2023-05-14T02:45:44.685Z,19.30
2023-05-14T02:48:12.466Z,17.65
2023-05-14T02:50:39.584Z,18.27
2023-05-14T02:53:06.637Z,19.40
2023-05-14T02:55:33.921Z,17.30
2023-05-14T02:58:00.945Z,20.42
2023-05-14T03:00:28.200Z,16.98
2023-05-14T03:02:55.867Z,17.58
2023-05-14T03:05:23.327Z,16.02
2023-05-14T03:07:53.676Z,16.92
2023-05-14T03:10:20.919Z,15.20
2023-05-14T03:12:48.178Z,17.95
2023-05-14T03:15:15.369Z,17.33
2023-05-14T03:17:42.465Z,19.30
2023-05-14T03:20:10.856Z,19.35
2023-05-14T03:22:37.916Z,17.60
2023-05-14T03:25:05.204Z,19.05
2023-05-14T03:27:32.258Z,15.20
2023-05-14T03:29:59.269Z,18.50
2023-05-14T03:32:26.512Z,15.93
2023-05-14T03:34:53.830Z,17.08
2023-05-14T03:37:21.576Z,16.00
2023-05-14T03:39:48.522Z,18.17
2023-05-14T03:42:15.607Z,15.35
2023-05-14T03:44:42.612Z,15.38
2023-05-14T03:47:09.674Z,19.90
2023-05-14T03:49:36.813Z,22.58
2023-05-14T03:52:04.045Z,23.23
2023-05-14T03:54:31.220Z,25.70
2023-05-14T04:01:17.289Z,16.55
2023-05-14T04:03:44.562Z,15.80
2023-05-14T04:06:13.449Z,15.23
2023-05-14T04:08:40.607Z,15.32
2023-05-14T04:11:08.185Z,14.20
2023-05-14T04:13:35.477Z,15.65
2023-05-14T04:16:02.757Z,14.88
2023-05-14T04:18:30.076Z,14.57
2023-05-14T04:20:57.039Z,15.13
2023-05-14T04:23:24.156Z,17.10
2023-05-14T04:25:51.183Z,16.77
2023-05-14T04:28:18.271Z,16.58
2023-05-14T04:30:45.886Z,15.80
2023-05-14T04:33:12.928Z,14.55
2023-05-14T04:35:39.923Z,15.43
2023-05-14T04:38:06.990Z,15.57
2023-05-14T04:40:33.984Z,15.23
2023-05-14T04:43:01.249Z,15.52
2023-05-14T04:45:28.408Z,14.02
2023-05-14T04:47:55.586Z,18.42
2023-05-14T04:50:22.834Z,17.88
2023-05-14T04:52:49.901Z,13.68
2023-05-14T04:55:18.236Z,13.93
2023-05-14T04:57:45.307Z,14.38
2023-05-14T05:00:13.341Z,16.15
2023-05-14T05:02:40.468Z,17.58
2023-05-14T05:05:07.771Z,16.92
2023-05-14T05:07:35.187Z,17.08
2023-05-14T05:10:02.857Z,16.08
2023-05-14T05:12:30.375Z,16.98
2023-05-14T05:14:58.135Z,17.30
2023-05-14T05:17:25.928Z,17.75
2023-05-14T05:19:53.091Z,16.60
2023-05-14T05:22:20.367Z,20.40
2023-05-14T05:24:49.791Z,24.50
2023-05-14T05:29:44.996Z,25.73
2023-05-14T05:32:12.034Z,21.55
2023-05-14T05:34:39.281Z,27.17
2023-05-14T05:37:06.366Z,25.70
2023-05-14T05:39:35.255Z,18.02
2023-05-14T05:42:02.988Z,14.02
2023-05-14T05:44:30.005Z,15.35
2023-05-14T05:46:57.905Z,15.70
2023-05-14T05:49:24.935Z,13.10
2023-05-14T05:51:52.166Z,14.23
2023-05-14T05:54:19.180Z,15.00
2023-05-14T05:56:46.202Z,14.75
2023-05-14T05:59:13.246Z,15.70
2023-05-14T06:01:41.452Z,15.18
2023-05-14T06:04:08.507Z,16.33
2023-05-14T06:06:35.605Z,20.15
2023-05-14T06:09:02.724Z,18.23
2023-05-14T06:11:29.767Z,18.27
2023-05-14T06:13:56.788Z,17.13
2023-05-14T06:16:24.875Z,16.73
2023-05-14T06:18:52.990Z,16.95
2023-05-14T06:21:20.044Z,17.52
2023-05-14T06:23:47.365Z,15.80
2023-05-14T06:26:14.390Z,17.88
2023-05-14T06:28:41.464Z,17.02
2023-05-14T06:31:08.616Z,13.70
2023-05-14T06:33:35.661Z,14.52
2023-05-14T06:36:05.441Z,16.98
2023-05-14T06:42:31.560Z,18.27
2023-05-14T06:44:58.733Z,13.98
2023-05-14T06:47:25.826Z,16.90
2023-05-14T06:49:52.856Z,12.52
2023-05-14T06:52:19.862Z,15.60
2023-05-14T06:54:46.886Z,14.48
2023-05-14T06:57:13.961Z,14.43
2023-05-14T06:59:40.960Z,14.98
2023-05-14T07:06:06.883Z,14.95
2023-05-14T07:08:34.025Z,12.50
2023-05-14T07:11:01.119Z,13.07
2023-05-14T07:13:28.890Z,12.43
2023-05-14T07:15:56.274Z,13.18
2023-05-14T07:18:24.209Z,12.15
2023-05-14T07:20:51.254Z,11.80
2023-05-14T07:23:19.882Z,12.75
2023-05-14T07:25:47.099Z,13.55
2023-05-14T07:28:14.119Z,13.65
2023-05-14T07:30:41.169Z,12.07
2023-05-14T07:33:08.245Z,11.43
2023-05-14T07:35:35.444Z,12.65
2023-05-14T07:38:03.195Z,15.93
2023-05-14T07:40:30.188Z,11.45
2023-05-14T07:42:57.155Z,12.82
2023-05-14T07:45:24.159Z,10.77
2023-05-14T07:47:52.306Z,10.18
2023-05-14T07:50:19.645Z,10.80
2023-05-14T07:52:46.629Z,11.57
2023-05-14T07:55:13.819Z,11.65
2023-05-14T07:57:40.821Z,12.65
2023-05-14T08:00:08.398Z,10.80
2023-05-14T08:02:42.740Z,10.82
2023-05-14T08:05:10.235Z,9.25
2023-05-14T08:07:37.180Z,10.88
2023-05-14T08:10:04.481Z,9.55
2023-05-14T08:12:31.907Z,10.63
2023-05-14T08:14:58.910Z,10.77
2023-05-14T08:17:26.286Z,10.73
2023-05-14T08:19:53.983Z,11.40
2023-05-14T08:22:21.858Z,11.30
2023-05-14T08:24:48.999Z,10.95
2023-05-14T08:27:16.757Z,11.63
2023-05-14T08:29:43.775Z,10.13
2023-05-14T08:32:22.191Z,10.93
2023-05-14T08:37:17.803Z,8.48
2023-05-14T08:39:44.963Z,8.90
2023-05-14T08:42:13.950Z,7.95
2023-05-14T08:44:50.310Z,6.93
2023-05-14T08:47:21.342Z,7.80
2023-05-14T08:49:54.393Z,8.75
2023-05-14T08:52:22.970Z,7.80
2023-05-14T08:54:51.398Z,9.75
2023-05-14T08:57:20.312Z,8.30
2023-05-14T08:59:47.702Z,10.47
2023-05-14T09:02:17.457Z,8.27
2023-05-14T09:04:44.970Z,7.75
2023-05-14T09:07:12.144Z,7.00
2023-05-14T09:09:39.376Z,7.63
2023-05-14T09:12:06.874Z,8.05
2023-05-14T09:14:33.965Z,11.18
2023-05-14T09:17:01.346Z,7.35
2023-05-14T09:19:28.740Z,6.38
2023-05-14T09:21:59.223Z,8.57
2023-05-14T09:24:29.210Z,7.65
2023-05-14T09:29:29.107Z,7.97
2023-05-14T09:31:57.396Z,8.85
2023-05-14T09:34:32.522Z,9.55
2023-05-14T09:37:04.093Z,7.30
2023-05-14T09:39:32.184Z,6.60
2023-05-14T09:41:59.722Z,7.32
2023-05-14T09:44:27.391Z,10.98
2023-05-14T09:46:54.719Z,10.10
2023-05-14T09:49:22.437Z,7.38
2023-05-14T09:51:50.214Z,7.20
2023-05-14T09:54:17.659Z,8.52
2023-05-14T09:56:45.366Z,7.97
2023-05-14T09:59:12.436Z,7.20
2023-05-14T10:01:42.626Z,7.65
2023-05-14T10:04:11.334Z,8.52
2023-05-14T10:06:39.983Z,8.23
2023-05-14T10:09:14.100Z,7.95
2023-05-14T10:11:45.420Z,9.73
2023-05-14T10:14:25.047Z,9.18
2023-05-14T10:16:54.231Z,10.80
2023-05-14T10:19:23.885Z,8.52
2023-05-14T10:24:24.816Z,9.40
2023-05-14T10:26:52.632Z,8.95
2023-05-14T10:29:19.628Z,9.25
2023-05-14T10:31:51.708Z,10.82
2023-05-14T10:34:38.947Z,8.40
2023-05-14T10:37:08.836Z,11.48
2023-05-14T10:40:12.228Z,11.75
2023-05-14T10:42:43.577Z,9.55
2023-05-14T10:45:13.321Z,8.60
2023-05-14T10:47:47.580Z,10.13
2023-05-14T10:50:15.970Z,10.70
2023-05-14T10:52:44.673Z,10.27
2023-05-14T10:55:16.827Z,9.70
2023-05-14T10:57:45.883Z,9.10
2023-05-14T11:00:14.720Z,7.57
2023-05-14T11:02:44.023Z,8.70
2023-05-14T11:05:33.788Z,8.07
2023-05-14T11:10:31.312Z,8.88
2023-05-14T11:15:28.517Z,8.73
2023-05-14T11:17:56.040Z,8.00
2023-05-14T11:20:23.606Z,9.75
2023-05-14T11:22:53.602Z,8.00
2023-05-14T11:25:21.844Z,8.38
2023-05-14T11:27:50.624Z,9.52
2023-05-14T11:30:19.554Z,9.45
2023-05-14T11:32:48.134Z,8.80
2023-05-14T11:35:15.772Z,8.88
2023-05-14T11:37:43.645Z,9.07
2023-05-14T11:40:16.876Z,9.43
2023-05-14T11:42:44.006Z,6.90
2023-05-14T11:45:12.788Z,7.00
2023-05-14T11:47:41.922Z,9.07
2023-05-14T11:50:09.805Z,7.35
2023-05-14T11:52:41.597Z,7.70
2023-05-14T11:55:12.872Z,8.45
2023-05-14T11:57:41.183Z,11.45
2023-05-14T12:00:21.320Z,8.85
2023-05-14T12:02:52.559Z,9.48
2023-05-14T12:05:19.795Z,9.63
2023-05-14T12:07:47.663Z,9.85
2023-05-14T12:10:14.940Z,9.77
2023-05-14T12:12:47.101Z,7.85
2023-05-14T12:15:16.197Z,7.68
2023-05-14T12:17:43.534Z,9.25
2023-05-14T12:20:11.735Z,8.90
2023-05-14T12:22:39.461Z,6.88
2023-05-14T12:25:13.485Z,8.18
2023-05-14T12:27:41.547Z,6.63
2023-05-14T12:32:41.303Z,6.55
2023-05-14T12:35:09.261Z,7.07
2023-05-14T12:37:37.584Z,8.02
2023-05-14T12:40:11.743Z,7.30
2023-05-14T12:42:38.776Z,7.32
2023-05-14T12:45:08.151Z,8.88
2023-05-14T12:47:36.451Z,7.65
2023-05-14T12:50:04.179Z,6.53
2023-05-14T12:57:29.880Z,6.40
2023-05-14T12:59:57.540Z,7.63
2023-05-14T13:02:24.628Z,11.02
2023-05-14T13:04:51.692Z,8.23
2023-05-14T13:07:18.856Z,7.35
2023-05-14T13:09:45.839Z,6.57
2023-05-14T13:12:12.955Z,7.20
2023-05-14T13:14:39.980Z,7.30
2023-05-14T13:17:08.326Z,9.73
2023-05-14T13:19:35.501Z,9.25
2023-05-14T13:22:02.572Z,8.27
2023-05-14T13:24:29.679Z,8.43
2023-05-14T13:26:56.815Z,8.90
2023-05-14T13:29:24.678Z,7.65
2023-05-14T13:31:51.867Z,8.40
2023-05-14T13:34:19.273Z,9.32
2023-05-14T13:36:47.272Z,8.50
2023-05-14T13:39:14.613Z,10.10
2023-05-14T13:41:42.107Z,7.55
2023-05-14T13:44:09.103Z,9.10
2023-05-14T13:46:36.362Z,8.85
2023-05-14T13:49:03.473Z,10.27
2023-05-14T13:51:31.440Z,8.68
2023-05-14T13:53:58.487Z,8.80
2023-05-14T13:56:26.048Z,8.73
2023-05-14T13:58:53.125Z,8.65
2023-05-14T14:01:20.181Z,7.95
2023-05-14T14:03:47.388Z,9.13
2023-05-14T14:06:14.477Z,8.52
2023-05-14T14:08:41.486Z,8.32
2023-05-14T14:11:08.538Z,8.85
2023-05-14T14:13:35.643Z,7.05
2023-05-14T14:16:03.645Z,7.22
2023-05-14T14:18:30.824Z,6.03
2023-05-14T14:20:58.071Z,5.90
2023-05-14T14:23:25.215Z,6.43
2023-05-14T14:25:52.205Z,6.47
2023-05-14T14:28:19.244Z,6.90
2023-05-14T14:30:46.334Z,6.18
2023-05-14T14:33:13.444Z,7.03
2023-05-14T14:35:40.691Z,5.28
2023-05-14T14:38:07.785Z,6.18
2023-05-14T14:40:35.256Z,4.93
2023-05-14T14:43:02.323Z,5.68
2023-05-14T14:45:29.319Z,6.75
2023-05-14T14:48:22.184Z,4.95
2023-05-14T14:50:49.426Z,5.47
2023-05-14T14:53:16.428Z,6.22
2023-05-14T14:55:43.461Z,5.03
2023-05-14T14:58:10.506Z,3.65
2023-05-14T15:00:37.907Z,3.90
2023-05-14T15:03:05.036Z,3.85
2023-05-14T15:05:32.178Z,3.80
2023-05-14T15:07:59.207Z,3.92
2023-05-14T15:10:28.720Z,3.97
2023-05-14T15:12:59.693Z,4.50
2023-05-14T15:15:26.936Z,3.53
2023-05-14T15:17:54.036Z,5.15
2023-05-14T15:20:21.054Z,5.03
2023-05-14T15:22:49.182Z,5.43
2023-05-14T15:25:16.180Z,4.47
2023-05-14T15:27:43.251Z,4.47
2023-05-14T15:30:11.068Z,5.25
2023-05-14T15:32:38.202Z,8.05
2023-05-14T15:35:05.948Z,3.75
2023-05-14T15:37:45.452Z,5.20
2023-05-14T15:40:12.962Z,3.90
2023-05-14T15:42:44.278Z,5.32
2023-05-14T15:45:12.727Z,5.13
2023-05-14T15:47:43.245Z,5.88
2023-05-14T15:50:10.807Z,5.18
2023-05-14T15:52:39.252Z,4.75
2023-05-14T15:55:06.773Z,4.18
2023-05-14T15:57:34.415Z,4.50
2023-05-14T16:00:01.875Z,3.92
2023-05-14T16:05:00.529Z,4.45
2023-05-14T16:07:27.777Z,4.30
2023-05-14T16:09:54.959Z,5.65
2023-05-14T16:12:22.654Z,4.95
2023-05-14T16:14:50.347Z,4.47
2023-05-14T16:17:17.455Z,5.88
2023-05-14T16:19:44.507Z,4.97
2023-05-14T16:22:11.609Z,4.75
2023-05-14T16:24:38.741Z,4.57
2023-05-14T16:27:06.308Z,5.70
2023-05-14T16:29:33.418Z,4.80
2023-05-14T16:32:00.598Z,4.07
2023-05-14T16:34:27.712Z,6.40
2023-05-14T16:36:54.868Z,5.00
2023-05-14T16:39:21.892Z,6.07
2023-05-14T16:41:48.843Z,4.20
2023-05-14T16:44:16.059Z,4.55
2023-05-14T16:46:43.240Z,4.68
2023-05-14T16:49:10.272Z,4.53
2023-05-14T16:51:42.535Z,4.18
2023-05-14T16:54:09.797Z,4.60
2023-05-14T16:56:37.096Z,4.70
2023-05-14T16:59:04.128Z,3.80
2023-05-14T17:01:31.538Z,6.38
2023-05-14T17:03:58.706Z,4.93
2023-05-14T17:06:25.848Z,4.88
2023-05-14T17:08:52.995Z,5.32
2023-05-14T17:11:21.157Z,5.18
2023-05-14T17:13:48.408Z,7.22
2023-05-14T17:16:16.131Z,6.65
2023-05-14T17:18:43.524Z,7.07
2023-05-14T17:21:10.525Z,5.10
2023-05-14T17:23:37.742Z,5.03
2023-05-14T17:26:04.814Z,5.40
2023-05-14T17:28:31.874Z,6.45
2023-05-14T17:30:58.883Z,4.95
2023-05-14T17:33:25.932Z,6.50
2023-05-14T17:35:52.969Z,4.82
2023-05-14T17:38:20.341Z,4.70
2023-05-14T17:40:47.542Z,5.65
2023-05-14T17:43:14.907Z,4.57
2023-05-14T17:45:54.008Z,6.32
2023-05-14T17:48:24.041Z,4.03
2023-05-14T17:50:52.064Z,5.72
2023-05-14T17:53:19.121Z,4.40
2023-05-14T17:55:46.678Z,4.82
2023-05-14T17:58:15.609Z,4.63
2023-05-14T18:00:43.941Z,6.57
2023-05-14T18:03:11.600Z,4.72
2023-05-14T18:05:38.927Z,5.28
2023-05-14T18:08:06.016Z,5.30
2023-05-14T18:10:33.049Z,7.05
2023-05-14T18:13:00.053Z,4.78
2023-05-14T18:15:27.581Z,4.85
2023-05-14T18:17:54.915Z,5.10
2023-05-14T18:20:22.141Z,5.80
2023-05-14T18:22:52.508Z,4.63
2023-05-14T18:25:19.777Z,6.30
2023-05-14T18:27:47.133Z,6.60
2023-05-14T18:30:15.549Z,4.40
2023-05-14T18:32:44.689Z,5.97
2023-05-14T18:35:12.883Z,4.20
2023-05-14T18:37:40.170Z,4.97
2023-05-14T18:40:07.899Z,5.20
2023-05-14T18:42:35.392Z,5.20
2023-05-14T18:45:04.239Z,3.53
2023-05-14T18:47:31.903Z,5.03
2023-05-14T18:50:01.858Z,3.85
2023-05-14T18:52:29.525Z,6.07
2023-05-14T18:54:56.799Z,5.95
2023-05-14T18:57:23.991Z,5.45
2023-05-14T18:59:51.039Z,5.07
2023-05-14T19:02:18.115Z,5.20
2023-05-14T19:04:52.404Z,5.65
2023-05-14T19:07:21.256Z,7.80
2023-05-14T19:09:48.661Z,4.93
2023-05-14T19:12:16.258Z,7.32
2023-05-14T19:14:43.380Z,6.75
2023-05-14T19:17:10.464Z,7.90
2023-05-14T19:19:37.901Z,5.57
2023-05-14T19:22:05.235Z,5.90
2023-05-14T19:24:32.273Z,6.65
2023-05-14T19:26:59.316Z,4.90
2023-05-14T19:29:26.352Z,5.05
2023-05-14T19:31:56.179Z,6.45
2023-05-14T19:34:23.621Z,6.97
2023-05-14T19:36:50.905Z,5.03
2023-05-14T19:39:17.918Z,4.93
2023-05-14T19:41:45.196Z,5.47
2023-05-14T19:44:12.289Z,4.55
2023-05-14T19:47:06.115Z,5.10
2023-05-14T19:49:33.179Z,7.72
2023-05-14T19:56:27.001Z,6.32
2023-05-14T19:58:54.571Z,11.05
2023-05-14T20:01:21.931Z,8.60
2023-05-14T20:03:48.994Z,6.57
2023-05-14T20:06:17.658Z,5.25
2023-05-14T20:08:47.870Z,6.57
2023-05-14T20:11:45.619Z,6.00
2023-05-14T20:14:12.624Z,6.20
2023-05-14T20:16:39.768Z,7.72
2023-05-14T20:19:06.799Z,8.07
2023-05-14T20:21:33.891Z,9.50
2023-05-14T20:24:00.929Z,8.95
2023-05-14T20:26:27.928Z,8.20
2023-05-14T20:28:55.714Z,7.95
2023-05-14T20:31:22.842Z,12.23
2023-05-14T20:33:50.072Z,7.30
2023-05-14T20:36:17.168Z,6.82
2023-05-14T20:38:44.224Z,7.10
2023-05-14T20:42:02.324Z,5.82
2023-05-14T20:44:29.406Z,8.23
2023-05-14T20:46:56.407Z,11.65
2023-05-14T20:49:23.440Z,13.45
2023-05-14T20:51:50.546Z,12.00
2023-05-14T20:54:17.600Z,11.20
2023-05-14T20:56:44.675Z,12.93
2023-05-14T20:59:11.688Z,10.45
2023-05-14T21:01:38.817Z,9.00
2023-05-14T21:04:06.318Z,7.00
2023-05-14T21:06:33.548Z,6.15
2023-05-14T21:09:00.605Z,6.30
2023-05-14T21:11:27.596Z,6.75
2023-05-14T21:13:54.648Z,5.88
2023-05-14T21:16:22.036Z,5.70
2023-05-14T21:18:49.136Z,5.30
2023-05-14T21:21:16.206Z,6.55
2023-05-14T21:23:43.379Z,6.78
2023-05-14T21:26:10.624Z,4.68
2023-05-14T21:28:37.629Z,5.65
2023-05-14T21:31:04.671Z,5.65
2023-05-14T21:33:32.018Z,5.43
2023-05-14T21:35:59.100Z,6.35
2023-05-14T21:38:26.160Z,9.18
2023-05-14T21:40:53.160Z,7.07
2023-05-14T21:43:20.241Z,7.97
2023-05-14T21:46:04.539Z,6.78
2023-05-14T21:48:31.730Z,7.75
2023-05-14T21:50:58.751Z,6.40
2023-05-14T21:53:25.809Z,7.30
2023-05-14T21:55:53.584Z,7.63
2023-05-14T21:58:21.334Z,8.45
2023-05-14T22:00:48.324Z,6.78
2023-05-14T22:03:15.704Z,8.10
2023-05-14T22:05:42.820Z,6.47
2023-05-14T22:08:11.272Z,7.07
2023-05-14T22:10:38.267Z,9.38
2023-05-14T22:13:06.794Z,7.40
2023-05-14T22:15:34.509Z,7.38
2023-05-14T22:18:03.373Z,9.05
2023-05-14T22:20:30.513Z,6.53
2023-05-14T22:22:57.462Z,6.65
2023-05-14T22:25:24.812Z,6.22
2023-05-14T22:27:52.109Z,7.20
2023-05-14T22:30:19.174Z,8.32
2023-05-14T22:32:46.641Z,9.48
2023-05-14T22:35:13.737Z,10.32
2023-05-14T22:37:40.840Z,7.80
2023-05-14T22:40:09.247Z,8.18
2023-05-14T22:42:36.502Z,9.18
2023-05-14T22:45:03.583Z,10.23
2023-05-14T22:47:30.809Z,9.05
2023-05-14T22:49:57.842Z,8.23
2023-05-14T22:52:26.166Z,7.80
2023-05-14T22:54:53.364Z,8.90
2023-05-14T22:57:20.624Z,7.05
2023-05-14T22:59:47.791Z,10.07
2023-05-14T23:02:14.815Z,9.10
2023-05-14T23:04:41.785Z,10.00
2023-05-14T23:07:08.962Z,7.88
2023-05-14T23:09:36.027Z,8.13
2023-05-14T23:12:03.073Z,11.40
2023-05-14T23:14:30.108Z,7.78
2023-05-14T23:16:57.218Z,7.68
2023-05-14T23:19:24.327Z,7.90
2023-05-14T23:21:51.379Z,8.68
2023-05-14T23:24:18.514Z,9.35
2023-05-14T23:26:45.550Z,8.90
2023-05-14T23:29:12.509Z,8.90
2023-05-14T23:31:41.187Z,7.25
2023-05-14T23:34:08.267Z,9.35
2023-05-14T23:36:36.122Z,10.10
2023-05-14T23:39:03.148Z,7.50
2023-05-14T23:41:30.156Z,7.07
2023-05-14T23:43:57.224Z,8.93
2023-05-14T23:46:24.443Z,9.40
2023-05-14T23:48:52.268Z,10.30
2023-05-14T23:51:19.228Z,8.93
2023-05-14T23:53:46.230Z,8.70
2023-05-14T23:56:13.227Z,8.20
2023-05-14T23:58:40.302Z,9.02
